ASL400 LYBE-LIRF
Flight info
| Callsign | ASL400 |
|---|---|
| Flight time | N/A |
| Altitude | 20000 |
| Route | VAL Y88 VEBAR/N0455F380 DCT VELUG/N0452F370 DCT ARSOB DCT ETRIN DCT ESODU/N0375F190 Z924 MOPUV |
| Aircraft | A319/M-SDE3FGHIRWY/LB1 |
Departure
| Time | 2026-04-30 14:11 |
|---|---|
| Airport | Belgrade Nikola Tesla Airport (LYBE) |
Arrival
| Time | N/A |
|---|---|
| Airport | Rome–Fiumicino Leonardo da Vinci International Airport (LIRF) |
| Time | Latitude | Longitude | Altitude | Speed | Heading |
|---|---|---|---|---|---|
| 2026-04-30 13:43 | 44.82015 | 20.29349 | 307 ft | 0 kts | 302° |
| 2026-04-30 13:58 | 44.81996 | 20.29390 | 307 ft | 4 kts | 314° |
| 2026-04-30 13:58 | 44.81975 | 20.29408 | 306 ft | 4 kts | 0° |
| 2026-04-30 13:59 | 44.81953 | 20.29398 | 306 ft | 4 kts | 32° |
| 2026-04-30 13:59 | 44.81933 | 20.29381 | 307 ft | 1 kts | 32° |
| 2026-04-30 14:02 | 44.81942 | 20.29388 | 307 ft | 4 kts | 32° |
| 2026-04-30 14:02 | 44.81977 | 20.29420 | 308 ft | 9 kts | 32° |
| 2026-04-30 14:02 | 44.82045 | 20.29479 | 307 ft | 14 kts | 32° |
| 2026-04-30 14:03 | 44.82097 | 20.29531 | 307 ft | 10 kts | 44° |
| 2026-04-30 14:03 | 44.82098 | 20.29619 | 309 ft | 11 kts | 112° |
| 2026-04-30 14:03 | 44.82052 | 20.29733 | 309 ft | 15 kts | 121° |
| 2026-04-30 14:03 | 44.81991 | 20.29870 | 307 ft | 14 kts | 121° |
| 2026-04-30 14:04 | 44.81935 | 20.29997 | 308 ft | 17 kts | 122° |
| 2026-04-30 14:04 | 44.81897 | 20.30083 | 308 ft | 10 kts | 122° |
| 2026-04-30 14:04 | 44.81856 | 20.30175 | 306 ft | 12 kts | 122° |
| 2026-04-30 14:04 | 44.81808 | 20.30283 | 307 ft | 14 kts | 122° |
| 2026-04-30 14:05 | 44.81756 | 20.30400 | 307 ft | 15 kts | 122° |
| 2026-04-30 14:05 | 44.81700 | 20.30526 | 307 ft | 16 kts | 122° |
| 2026-04-30 14:05 | 44.81654 | 20.30628 | 307 ft | 13 kts | 122° |
| 2026-04-30 14:05 | 44.81605 | 20.30738 | 307 ft | 14 kts | 122° |
| 2026-04-30 14:06 | 44.81549 | 20.30864 | 306 ft | 15 kts | 122° |
| 2026-04-30 14:06 | 44.81446 | 20.31097 | 306 ft | 16 kts | 122° |
| 2026-04-30 14:07 | 44.81341 | 20.31337 | 307 ft | 15 kts | 122° |
| 2026-04-30 14:07 | 44.81285 | 20.31462 | 306 ft | 16 kts | 122° |
| 2026-04-30 14:07 | 44.81224 | 20.31598 | 307 ft | 16 kts | 122° |
| 2026-04-30 14:08 | 44.81111 | 20.31854 | 308 ft | 15 kts | 122° |
| 2026-04-30 14:08 | 44.81057 | 20.31976 | 306 ft | 15 kts | 122° |
| 2026-04-30 14:08 | 44.80993 | 20.32145 | 305 ft | 8 kts | 101° |
| 2026-04-30 14:09 | 44.81007 | 20.32225 | 305 ft | 8 kts | 54° |
| 2026-04-30 14:09 | 44.81054 | 20.32224 | 307 ft | 9 kts | 317° |
| 2026-04-30 14:09 | 44.81091 | 20.32149 | 307 ft | 0 kts | 302° |
| 2026-04-30 14:10 | 44.81111 | 20.32104 | 305 ft | 25 kts | 302° |
| 2026-04-30 14:10 | 44.81317 | 20.31643 | 307 ft | 85 kts | 302° |
| 2026-04-30 14:10 | 44.81734 | 20.30707 | 308 ft | 138 kts | 302° |
| 2026-04-30 14:10 | 44.82283 | 20.29490 | 768 ft | 147 kts | 307° |
| 2026-04-30 14:11 | 44.82802 | 20.28226 | 1486 ft | 155 kts | 296° |
| 2026-04-30 14:11 | 44.82744 | 20.26599 | 1877 ft | 189 kts | 250° |
| 2026-04-30 14:11 | 44.81824 | 20.25107 | 2407 ft | 213 kts | 226° |
| 2026-04-30 14:11 | 44.80691 | 20.23614 | 2771 ft | 243 kts | 226° |
| 2026-04-30 14:12 | 44.79390 | 20.21866 | 3275 ft | 267 kts | 226° |
| 2026-04-30 14:12 | 44.78086 | 20.20101 | 4656 ft | 256 kts | 226° |
| 2026-04-30 14:12 | 44.76795 | 20.18345 | 5448 ft | 260 kts | 227° |
| 2026-04-30 14:12 | 44.75935 | 20.17173 | 5691 ft | 259 kts | 226° |
| 2026-04-30 14:13 | 44.74205 | 20.14811 | 5964 ft | 259 kts | 226° |
| 2026-04-30 14:13 | 44.72914 | 20.13048 | 6002 ft | 259 kts | 227° |
| 2026-04-30 14:13 | 44.71625 | 20.11287 | 6005 ft | 258 kts | 227° |
| 2026-04-30 14:13 | 44.70337 | 20.09525 | 6002 ft | 258 kts | 226° |
| 2026-04-30 14:14 | 44.69049 | 20.07765 | 6007 ft | 259 kts | 226° |
| 2026-04-30 14:14 | 44.67726 | 20.06101 | 6002 ft | 260 kts | 217° |
| 2026-04-30 14:14 | 44.66087 | 20.04919 | 6084 ft | 277 kts | 200° |
| 2026-04-30 14:14 | 44.64239 | 20.03989 | 6846 ft | 285 kts | 201° |
| 2026-04-30 14:15 | 44.62364 | 20.03020 | 7723 ft | 290 kts | 201° |
| 2026-04-30 14:15 | 44.60465 | 20.02028 | 8654 ft | 293 kts | 201° |
| 2026-04-30 14:15 | 44.58541 | 20.01020 | 9565 ft | 297 kts | 200° |
| 2026-04-30 14:15 | 44.56586 | 19.99999 | 10432 ft | 302 kts | 200° |
| 2026-04-30 14:16 | 44.54598 | 19.98962 | 11211 ft | 308 kts | 200° |
| 2026-04-30 14:16 | 44.52576 | 19.97910 | 12002 ft | 313 kts | 201° |
| 2026-04-30 14:16 | 44.50550 | 19.96855 | 12770 ft | 318 kts | 201° |
| 2026-04-30 14:16 | 44.48461 | 19.95775 | 13542 ft | 323 kts | 201° |
| 2026-04-30 14:17 | 44.46339 | 19.94678 | 14277 ft | 327 kts | 201° |
| 2026-04-30 14:17 | 44.44193 | 19.93568 | 14986 ft | 330 kts | 201° |
| 2026-04-30 14:17 | 44.42027 | 19.92449 | 15730 ft | 332 kts | 201° |
| 2026-04-30 14:17 | 44.39852 | 19.91326 | 16462 ft | 334 kts | 202° |
| 2026-04-30 14:18 | 44.37661 | 19.90196 | 17221 ft | 336 kts | 202° |
| 2026-04-30 14:18 | 44.35498 | 19.88947 | 17956 ft | 337 kts | 211° |
| 2026-04-30 14:18 | 44.31998 | 19.84716 | 19087 ft | 341 kts | 238° |
| 2026-04-30 14:19 | 44.29962 | 19.78515 | 19414 ft | 368 kts | 253° |
| 2026-04-30 14:19 | 44.29065 | 19.75131 | 19873 ft | 375 kts | 253° |
| 2026-04-30 14:19 | 44.28145 | 19.71704 | 20206 ft | 379 kts | 253° |
| 2026-04-30 14:20 | 44.27210 | 19.68267 | 20282 ft | 379 kts | 252° |
| 2026-04-30 14:20 | 44.26267 | 19.64831 | 20290 ft | 379 kts | 252° |
| 2026-04-30 14:20 | 44.24384 | 19.57972 | 20291 ft | 378 kts | 252° |
| 2026-04-30 14:21 | 44.23449 | 19.54549 | 20293 ft | 378 kts | 252° |
| 2026-04-30 14:21 | 44.22526 | 19.51175 | 20290 ft | 377 kts | 252° |
| 2026-04-30 14:21 | 44.20653 | 19.44343 | 20291 ft | 377 kts | 252° |
| 2026-04-30 14:22 | 44.19710 | 19.40928 | 20291 ft | 377 kts | 252° |
| 2026-04-30 14:22 | 44.17827 | 19.34102 | 20289 ft | 377 kts | 253° |
| 2026-04-30 14:22 | 44.16922 | 19.30673 | 20288 ft | 377 kts | 253° |
| 2026-04-30 14:23 | 44.15153 | 19.23806 | 20915 ft | 382 kts | 254° |
| 2026-04-30 14:23 | 44.13329 | 19.16800 | 22015 ft | 388 kts | 252° |
| 2026-04-30 14:24 | 44.11247 | 19.09791 | 23079 ft | 396 kts | 250° |
| 2026-04-30 14:24 | 44.10137 | 19.06268 | 23607 ft | 400 kts | 250° |
| 2026-04-30 14:25 | 44.07879 | 18.99143 | 24510 ft | 405 kts | 250° |
| 2026-04-30 14:25 | 44.05645 | 18.91975 | 25433 ft | 408 kts | 250° |
| 2026-04-30 14:26 | 44.03408 | 18.84696 | 26345 ft | 411 kts | 250° |
| 2026-04-30 14:26 | 44.02280 | 18.81037 | 26801 ft | 413 kts | 250° |
| 2026-04-30 14:26 | 44.00001 | 18.73692 | 27705 ft | 415 kts | 250° |
| 2026-04-30 14:27 | 43.98857 | 18.70008 | 28183 ft | 416 kts | 250° |
| 2026-04-30 14:27 | 43.97722 | 18.66360 | 28619 ft | 418 kts | 250° |
| 2026-04-30 14:27 | 43.96564 | 18.62653 | 29050 ft | 420 kts | 250° |
| 2026-04-30 14:28 | 43.94224 | 18.55198 | 29888 ft | 423 kts | 250° |
| 2026-04-30 14:28 | 43.93048 | 18.51446 | 30271 ft | 425 kts | 250° |
| 2026-04-30 14:28 | 43.91866 | 18.47676 | 30609 ft | 427 kts | 250° |
| 2026-04-30 14:28 | 43.90677 | 18.43894 | 30919 ft | 429 kts | 250° |
| 2026-04-30 14:29 | 43.88283 | 18.36293 | 31499 ft | 432 kts | 250° |
| 2026-04-30 14:29 | 43.86291 | 18.29968 | 32126 ft | 431 kts | 250° |
| 2026-04-30 14:30 | 43.82308 | 18.17408 | 33495 ft | 426 kts | 250° |
| 2026-04-30 14:31 | 43.79921 | 18.09923 | 34312 ft | 424 kts | 250° |
| 2026-04-30 14:31 | 43.77557 | 18.02516 | 34921 ft | 423 kts | 250° |
| 2026-04-30 14:31 | 43.76367 | 17.98788 | 35181 ft | 424 kts | 250° |
| 2026-04-30 14:32 | 43.73986 | 17.91335 | 35767 ft | 423 kts | 250° |
| 2026-04-30 14:32 | 43.72792 | 17.87616 | 36052 ft | 423 kts | 250° |
| 2026-04-30 14:32 | 43.71596 | 17.83900 | 36333 ft | 423 kts | 250° |
| 2026-04-30 14:33 | 43.70398 | 17.80185 | 36585 ft | 423 kts | 250° |
| 2026-04-30 14:33 | 43.67994 | 17.72743 | 37035 ft | 425 kts | 250° |
| 2026-04-30 14:33 | 43.66804 | 17.69066 | 37195 ft | 425 kts | 250° |
| 2026-04-30 14:34 | 43.64402 | 17.61659 | 37214 ft | 422 kts | 250° |
| 2026-04-30 14:34 | 43.62005 | 17.54286 | 37192 ft | 420 kts | 250° |
| 2026-04-30 14:35 | 43.58418 | 17.43295 | 37207 ft | 418 kts | 250° |
| 2026-04-30 14:36 | 43.56044 | 17.36033 | 37198 ft | 419 kts | 250° |
| 2026-04-30 14:36 | 43.53642 | 17.28712 | 37199 ft | 419 kts | 250° |
| 2026-04-30 14:37 | 43.51238 | 17.21398 | 37186 ft | 419 kts | 250° |
| 2026-04-30 14:37 | 43.48833 | 17.14088 | 37188 ft | 419 kts | 250° |
| 2026-04-30 14:38 | 43.46429 | 17.06833 | 37174 ft | 419 kts | 249° |
| 2026-04-30 14:38 | 43.44006 | 16.99527 | 37166 ft | 420 kts | 249° |
| 2026-04-30 14:39 | 43.41574 | 16.92218 | 37164 ft | 420 kts | 249° |
| 2026-04-30 14:39 | 43.39135 | 16.84910 | 37162 ft | 421 kts | 249° |
| 2026-04-30 14:40 | 43.35486 | 16.73997 | 37158 ft | 421 kts | 250° |
| 2026-04-30 14:40 | 43.33037 | 16.66707 | 37153 ft | 420 kts | 250° |
| 2026-04-30 14:41 | 43.30588 | 16.59430 | 37161 ft | 420 kts | 250° |
| 2026-04-30 14:41 | 43.28133 | 16.52166 | 37179 ft | 420 kts | 250° |
| 2026-04-30 14:42 | 43.25672 | 16.44901 | 37171 ft | 420 kts | 249° |
| 2026-04-30 14:42 | 43.23227 | 16.37693 | 37163 ft | 420 kts | 250° |
| 2026-04-30 14:43 | 43.20760 | 16.30440 | 37162 ft | 419 kts | 250° |
| 2026-04-30 14:43 | 43.18292 | 16.23206 | 37161 ft | 419 kts | 250° |
| 2026-04-30 14:44 | 43.15818 | 16.15976 | 37168 ft | 419 kts | 250° |
| 2026-04-30 14:44 | 43.13360 | 16.08803 | 37166 ft | 419 kts | 249° |
| 2026-04-30 14:45 | 43.10877 | 16.01587 | 37171 ft | 419 kts | 249° |
| 2026-04-30 14:45 | 43.08390 | 15.94377 | 37144 ft | 419 kts | 250° |
| 2026-04-30 14:46 | 43.05897 | 15.87178 | 37164 ft | 419 kts | 250° |
| 2026-04-30 14:46 | 43.03825 | 15.81200 | 37168 ft | 418 kts | 250° |
| 2026-04-30 14:47 | 43.00931 | 15.72858 | 37177 ft | 418 kts | 250° |
| 2026-04-30 14:47 | 42.98432 | 15.65685 | 37178 ft | 418 kts | 249° |
| 2026-04-30 14:48 | 42.95927 | 15.58519 | 37169 ft | 418 kts | 249° |
| 2026-04-30 14:48 | 42.93417 | 15.51359 | 37170 ft | 418 kts | 250° |
| 2026-04-30 14:49 | 42.90924 | 15.44273 | 37182 ft | 417 kts | 249° |
| 2026-04-30 14:49 | 42.88199 | 15.37259 | 37185 ft | 420 kts | 246° |
| 2026-04-30 14:50 | 42.83748 | 15.26970 | 37184 ft | 420 kts | 245° |
| 2026-04-30 14:51 | 42.79373 | 15.16699 | 37181 ft | 419 kts | 246° |
| 2026-04-30 14:52 | 42.75027 | 15.06374 | 37209 ft | 419 kts | 246° |
| 2026-04-30 14:52 | 42.71140 | 14.97191 | 36379 ft | 427 kts | 246° |
| 2026-04-30 14:53 | 42.68160 | 14.90185 | 35077 ft | 428 kts | 246° |
| 2026-04-30 14:53 | 42.66683 | 14.86703 | 35016 ft | 422 kts | 247° |
| 2026-04-30 14:54 | 42.63840 | 14.79907 | 35194 ft | 409 kts | 248° |
| 2026-04-30 14:54 | 42.61088 | 14.73279 | 34436 ft | 403 kts | 248° |
| 2026-04-30 14:55 | 42.58357 | 14.66687 | 33925 ft | 400 kts | 248° |
| 2026-04-30 14:55 | 42.56990 | 14.63399 | 33654 ft | 400 kts | 248° |
| 2026-04-30 14:55 | 42.53793 | 14.55756 | 33041 ft | 401 kts | 248° |
| 2026-04-30 14:56 | 42.51476 | 14.50239 | 32611 ft | 402 kts | 248° |
| 2026-04-30 14:56 | 42.48726 | 14.43692 | 32082 ft | 403 kts | 248° |
| 2026-04-30 14:57 | 42.47336 | 14.40393 | 31826 ft | 403 kts | 248° |
| 2026-04-30 14:57 | 42.44551 | 14.33794 | 31329 ft | 404 kts | 248° |
| 2026-04-30 14:58 | 42.41759 | 14.27200 | 30836 ft | 403 kts | 248° |
| 2026-04-30 14:58 | 42.40368 | 14.23918 | 30594 ft | 401 kts | 248° |
| 2026-04-30 14:58 | 42.37620 | 14.17441 | 30068 ft | 398 kts | 248° |
| 2026-04-30 14:59 | 42.34865 | 14.10965 | 29456 ft | 397 kts | 247° |
| 2026-04-30 15:00 | 42.30727 | 14.01281 | 28595 ft | 395 kts | 247° |
| 2026-04-30 15:00 | 42.27978 | 13.94900 | 27943 ft | 389 kts | 247° |
| 2026-04-30 15:01 | 42.25292 | 13.88656 | 26831 ft | 381 kts | 246° |
| 2026-04-30 15:01 | 42.23989 | 13.85620 | 26282 ft | 377 kts | 246° |
| 2026-04-30 15:01 | 42.21374 | 13.79543 | 25236 ft | 372 kts | 246° |
| 2026-04-30 15:02 | 42.20076 | 13.76532 | 24719 ft | 370 kts | 246° |
| 2026-04-30 15:02 | 42.18844 | 13.73503 | 24186 ft | 365 kts | 251° |
| 2026-04-30 15:03 | 42.16166 | 13.64088 | 22745 ft | 353 kts | 254° |
| 2026-04-30 15:03 | 42.14448 | 13.58028 | 21869 ft | 344 kts | 254° |
| 2026-04-30 15:04 | 42.12757 | 13.52081 | 21027 ft | 337 kts | 254° |
| 2026-04-30 15:04 | 42.10257 | 13.43264 | 19714 ft | 335 kts | 253° |
| 2026-04-30 15:05 | 42.07813 | 13.34690 | 18885 ft | 315 kts | 253° |
| 2026-04-30 15:06 | 42.06264 | 13.29268 | 18415 ft | 312 kts | 253° |
| 2026-04-30 15:06 | 42.04154 | 13.24107 | 17594 ft | 320 kts | 244° |
| 2026-04-30 15:07 | 42.01880 | 13.19005 | 16812 ft | 314 kts | 244° |
| 2026-04-30 15:07 | 41.99712 | 13.14156 | 16313 ft | 292 kts | 244° |
| 2026-04-30 15:08 | 41.98013 | 13.09371 | 15787 ft | 281 kts | 250° |
| 2026-04-30 15:08 | 41.95560 | 13.02221 | 15384 ft | 281 kts | 250° |
| 2026-04-30 15:09 | 41.93918 | 12.97470 | 15070 ft | 279 kts | 250° |
| 2026-04-30 15:09 | 41.92282 | 12.92751 | 14761 ft | 278 kts | 250° |
| 2026-04-30 15:10 | 41.90662 | 12.88084 | 14456 ft | 277 kts | 250° |
| 2026-04-30 15:11 | 41.87421 | 12.78747 | 13842 ft | 275 kts | 250° |
| 2026-04-30 15:11 | 41.85823 | 12.74144 | 13515 ft | 274 kts | 249° |
| 2026-04-30 15:12 | 41.83416 | 12.67259 | 13060 ft | 272 kts | 249° |
| 2026-04-30 15:13 | 41.81870 | 12.62639 | 12749 ft | 269 kts | 258° |
| 2026-04-30 15:14 | 41.84031 | 12.54015 | 12164 ft | 255 kts | 316° |
| 2026-04-30 15:14 | 41.87769 | 12.48980 | 11694 ft | 255 kts | 315° |
| 2026-04-30 15:16 | 41.95550 | 12.43796 | 10985 ft | 255 kts | 341° |
| 2026-04-30 15:17 | 42.02297 | 12.41000 | 10433 ft | 254 kts | 342° |
| 2026-04-30 15:18 | 42.10974 | 12.37379 | 9734 ft | 251 kts | 342° |
| 2026-04-30 15:19 | 42.15851 | 12.35336 | 9339 ft | 239 kts | 342° |